Time;durP1;ratioP1;P1;durP2;ratioP2;P2;SDS_P1;SDS_P2;PMS_P1;PMS_P2;Temp;Humidity;BMP_temperature;BMP_pressure;BME280_temperature;BME280_humidity;BME280_pressure;Samples;Min_cycle;Max_cycle;Signal;HPM_P1;HPM_P2
2022/02/11 00:01:45;;;;;;;10.45;2.25;;;;;;;5.39;79.59;102192.53;5049182;28;20048;-68
2022/02/11 00:04:41;;;;;;;10.73;2.13;;;;;;;5.41;80.32;102182.91;5049308;28;20090;-72
2022/02/11 00:07:07;;;;;;;9.35;2.03;;;;;;;5.41;80.84;102182.03;5049761;28;20041;-72
2022/02/11 00:09:32;;;;;;;13.85;2.60;;;;;;;5.45;81.32;102185.50;5062599;28;20032;-69
2022/02/11 00:11:57;;;;;;;6.07;1.80;;;;;;;5.42;80.79;102191.66;5054404;28;20560;-69
2022/02/11 00:14:25;;;;;;;15.60;2.50;;;;;;;5.41;81.70;102193.41;5053320;28;20127;-70
2022/02/11 00:16:50;;;;;;;12.27;2.30;;;;;;;5.33;82.02;102192.56;5052865;28;20504;-69
2022/02/11 00:19:16;;;;;;;8.93;2.15;;;;;;;5.33;82.52;102192.56;5037441;28;20103;-69
2022/02/11 00:21:41;;;;;;;13.82;2.22;;;;;;;5.38;82.63;102189.91;5034622;28;20064;-70
2022/02/11 00:24:06;;;;;;;11.70;2.38;;;;;;;5.39;83.38;102196.91;5035053;28;20388;-69
2022/02/11 00:26:35;;;;;;;14.68;2.25;;;;;;;5.38;83.31;102198.69;5035014;28;20029;-69
2022/02/11 00:32:07;;;;;;;13.82;2.58;;;;;;;5.47;82.51;102204.78;5032739;28;20025;-66
2022/02/11 00:34:29;;;;;;;10.82;2.65;;;;;;;5.46;83.11;102200.41;5034391;28;20045;-68
2022/02/11 00:37:18;;;;;;;8.82;2.95;;;;;;;5.39;82.42;102200.41;5035038;28;20029;-68
2022/02/11 01:02:11;;;;;;;14.40;2.50;;;;;;;5.26;85.72;102172.41;5034843;28;20091;-68
2022/02/11 01:04:12;;;;;;;9.27;2.15;;;;;;;5.30;85.68;102171.53;5033924;28;20087;-68
2022/02/11 01:06:37;;;;;;;11.95;2.47;;;;;;;5.33;85.70;102168.03;5033178;28;20025;-69
2022/02/11 01:09:04;;;;;;;11.20;2.65;;;;;;;5.39;85.34;102168.03;5033714;28;20032;-68
2022/02/11 01:11:37;;;;;;;11.20;2.50;;;;;;;5.41;86.09;102166.28;5034485;28;20029;-68
2022/02/11 01:14:02;;;;;;;12.10;2.50;;;;;;;5.39;86.21;102173.28;5035513;28;20037;-69
2022/02/11 01:16:37;;;;;;;12.88;2.28;;;;;;;5.45;86.45;102177.63;5034102;28;20551;-68
2022/02/11 01:22:02;;;;;;;15.75;2.50;;;;;;;5.40;92.20;102170.63;5051576;28;20120;-68
2022/02/11 01:37:50;;;;;;;13.48;2.40;;;;;;;5.01;97.58;102179.44;4953727;29;20028;-69
2022/02/11 01:40:44;;;;;;;12.10;2.53;;;;;;;5.01;97.26;102189.94;4953004;29;20064;-68
2022/02/11 01:51:20;;;;;;;13.32;2.65;;;;;;;5.12;93.13;102222.31;4952749;29;20478;-68
2022/02/11 01:56:41;;;;;;;12.63;2.00;;;;;;;5.16;90.54;102208.31;4952906;29;20067;-68
2022/02/11 02:15:34;;;;;;;17.38;2.83;;;;;;;5.33;90.54;102207.44;5030927;28;20041;-68
2022/02/11 02:23:16;;;;;;;12.93;2.22;;;;;;;5.36;90.18;102224.06;5030511;28;20041;-67
2022/02/11 02:34:01;;;;;;;14.23;2.10;;;;;;;5.39;89.72;102247.69;5011285;28;20041;-65
2022/02/11 02:50:36;;;;;;;15.27;2.22;;;;;;;5.33;90.40;102231.06;5033403;28;20044;-69
2022/02/11 02:58:29;;;;;;;17.92;2.72;;;;;;;5.43;88.57;102237.19;5032623;28;20101;-69
2022/02/11 03:01:29;;;;;;;14.83;2.50;;;;;;;5.36;88.53;102244.22;5033494;28;20026;-68
2022/02/11 04:55:39;;;;;;;20.58;3.38;;;;;;;4.75;88.04;102448.84;5033941;28;20039;-68
2022/02/11 05:00:28;;;;;;;15.57;2.80;;;;;;;4.75;85.77;102463.72;5034857;28;20124;-68
2022/02/11 05:02:57;;;;;;;18.08;3.17;;;;;;;4.75;85.53;102458.47;5032969;28;20132;-68
2022/02/11 05:05:23;;;;;;;22.58;3.10;;;;;;;4.74;85.96;102459.34;5034261;28;20050;-67
2022/02/11 05:07:48;;;;;;;13.07;2.28;;;;;;;4.70;84.69;102483.81;5034732;28;20068;-65
2022/02/11 05:10:13;;;;;;;15.05;2.38;;;;;;;4.69;84.98;102472.47;5034278;28;20441;-67
2022/02/11 05:12:39;;;;;;;12.27;3.20;;;;;;;4.68;84.24;102472.44;5033614;28;20029;-69
2022/02/11 05:15:11;;;;;;;16.83;2.83;;;;;;;4.67;84.52;102484.69;5034265;28;20025;-66
2022/02/11 05:17:40;;;;;;;16.17;2.97;;;;;;;4.60;85.24;102485.50;5034880;28;20025;-68
2022/02/11 05:20:07;;;;;;;17.40;2.67;;;;;;;4.57;84.75;102488.13;5014147;28;20033;-67
2022/02/11 05:22:32;;;;;;;13.30;2.50;;;;;;;4.57;84.50;102496.84;5024827;28;20490;-67
2022/02/11 05:24:58;;;;;;;16.77;3.03;;;;;;;4.60;85.08;102503.88;5034091;28;20022;-67
2022/02/11 05:27:24;;;;;;;15.35;3.03;;;;;;;4.63;84.65;102513.50;5033478;28;20385;-66
2022/02/11 05:29:49;;;;;;;18.67;2.63;;;;;;;4.63;85.40;102514.41;5034806;28;20432;-67
2022/02/11 05:32:14;;;;;;;15.20;2.47;;;;;;;4.65;84.71;102517.03;5033496;28;20033;-68
2022/02/11 05:34:40;;;;;;;12.15;2.47;;;;;;;4.66;84.12;102532.78;5033699;28;20064;-67
2022/02/11 05:37:05;;;;;;;15.20;2.78;;;;;;;4.67;80.51;102528.44;5033688;28;20056;-70
2022/02/11 05:39:30;;;;;;;9.55;2.13;;;;;;;4.66;80.70;102540.66;5034809;28;20025;-68
2022/02/11 05:41:56;;;;;;;15.77;2.50;;;;;;;4.69;82.93;102552.91;5033952;28;20021;-67
2022/02/11 05:44:21;;;;;;;16.08;2.40;;;;;;;4.71;84.73;102549.44;5032856;28;20072;-68
2022/02/11 05:46:46;;;;;;;7.55;1.70;;;;;;;4.67;86.31;102573.91;5032944;28;20034;-71
2022/02/11 05:49:12;;;;;;;9.48;2.20;;;;;;;4.60;86.52;102574.72;5033325;28;20061;-71
2022/02/11 05:51:37;;;;;;;11.30;2.42;;;;;;;4.58;86.79;102563.34;5034536;28;20025;-66
2022/02/11 05:54:03;;;;;;;17.20;2.65;;;;;;;4.53;85.84;102563.28;5033171;28;20029;-72
2022/02/11 05:56:28;;;;;;;12.32;2.53;;;;;;;4.48;86.04;102574.63;5033534;28;20037;-68
2022/02/11 05:58:53;;;;;;;12.40;2.38;;;;;;;4.47;86.58;102578.13;5033065;28;20025;-69
2022/02/11 06:01:19;;;;;;;17.95;2.83;;;;;;;4.46;86.90;102578.97;5034779;28;20064;-69
2022/02/11 06:03:44;;;;;;;12.80;2.40;;;;;;;4.43;88.80;102582.44;5032823;28;20111;-68
2022/02/11 06:06:09;;;;;;;19.63;3.40;;;;;;;4.38;88.64;102592.88;5032287;28;20025;-68
2022/02/11 06:08:35;;;;;;;21.73;2.80;;;;;;;4.32;88.96;102584.97;5032061;28;20494;-69
2022/02/11 06:11:00;;;;;;;16.52;3.05;;;;;;;4.24;89.75;102595.38;5034010;28;20112;-68
2022/02/11 06:13:25;;;;;;;13.90;2.80;;;;;;;4.18;90.16;102590.09;5032974;28;20091;-69
2022/02/11 06:15:51;;;;;;;16.42;2.90;;;;;;;4.14;89.40;102587.41;5032749;28;20637;-68
2022/02/11 06:18:16;;;;;;;21.13;3.53;;;;;;;4.11;89.44;102598.75;5032994;28;20117;-69
2022/02/11 06:20:41;;;;;;;16.40;2.83;;;;;;;4.14;87.51;102597.91;5032784;28;20078;-68
2022/02/11 06:23:07;;;;;;;20.55;3.13;;;;;;;4.14;86.20;102596.16;5032733;28;20049;-69
2022/02/11 06:25:32;;;;;;;17.70;3.03;;;;;;;4.19;85.69;102612.81;5021462;28;20470;-68
2022/02/11 06:27:58;;;;;;;15.38;2.67;;;;;;;4.18;85.66;102615.41;5028803;28;20484;-69
2022/02/11 06:30:23;;;;;;;17.83;3.30;;;;;;;4.19;86.05;102620.66;5032540;28;20443;-67
2022/02/11 06:32:49;;;;;;;21.42;3.20;;;;;;;4.28;85.93;102642.63;5032301;28;20033;-67
2022/02/11 06:35:14;;;;;;;16.70;2.70;;;;;;;4.36;85.87;102639.22;5032649;28;20029;-69
2022/02/11 06:37:43;;;;;;;15.63;2.75;;;;;;;4.29;84.74;102644.41;5020468;28;20026;-69
2022/02/11 06:40:10;;;;;;;12.52;2.30;;;;;;;4.23;83.56;102658.31;5012884;28;20032;-68
2022/02/11 06:42:36;;;;;;;12.13;2.22;;;;;;;4.15;83.34;102652.97;5012905;28;20048;-69
2022/02/11 06:45:02;;;;;;;16.40;2.58;;;;;;;4.07;83.20;102668.63;5031238;28;20374;-68
2022/02/11 06:47:28;;;;;;;18.40;3.00;;;;;;;4.04;83.48;102681.72;5032233;28;20374;-69
2022/02/11 06:49:53;;;;;;;17.60;3.30;;;;;;;4.05;84.42;102685.19;5030191;28;20048;-69
2022/02/11 06:52:19;;;;;;;16.95;2.78;;;;;;;4.03;84.49;102700.00;5032182;28;20064;-69
2022/02/11 06:54:44;;;;;;;21.75;2.83;;;;;;;4.02;85.46;102698.28;5036544;28;20112;-69
2022/02/11 06:57:10;;;;;;;16.23;2.67;;;;;;;4.06;86.22;102721.03;5051585;28;20097;-69
2022/02/11 06:59:35;;;;;;;28.02;3.67;;;;;;;4.13;86.36;102711.50;5051974;28;20029;-70
2022/02/11 07:02:00;;;;;;;19.63;3.15;;;;;;;4.20;85.29;102723.84;5046866;28;20036;-67
2022/02/11 07:04:26;;;;;;;18.15;2.88;;;;;;;4.26;84.23;102723.91;5032758;28;20472;-69
2022/02/11 07:06:51;;;;;;;17.83;3.00;;;;;;;4.24;84.41;102718.63;5032158;28;20056;-69
2022/02/11 07:09:17;;;;;;;15.07;2.60;;;;;;;4.23;85.07;102740.50;5032184;28;20053;-69
2022/02/11 07:11:42;;;;;;;18.65;3.20;;;;;;;4.26;84.28;102739.66;5032220;28;20033;-69
2022/02/11 07:14:07;;;;;;;20.42;2.97;;;;;;;4.22;84.97;102738.72;5031468;28;20040;-69
2022/02/11 07:16:33;;;;;;;17.55;3.53;;;;;;;4.14;85.61;102742.97;5033082;28;20501;-67
2022/02/11 07:18:58;;;;;;;16.60;2.97;;;;;;;4.07;86.95;102759.50;5031464;28;20030;-68
2022/02/11 07:21:23;;;;;;;20.50;2.63;;;;;;;4.08;89.38;102780.50;5018254;28;20391;-70
2022/02/11 07:23:49;;;;;;;13.73;2.38;;;;;;;4.06;90.43;102765.63;5029259;28;20041;-70
2022/02/11 07:26:14;;;;;;;17.45;3.10;;;;;;;3.93;89.89;102775.91;5035636;28;20017;-69
2022/02/11 07:28:39;;;;;;;20.70;3.03;;;;;;;3.92;90.93;102770.66;5036118;28;20377;-68
2022/02/11 07:31:05;;;;;;;25.33;3.60;;;;;;;3.92;91.74;102781.16;5035668;28;20100;-67
2022/02/11 07:33:30;;;;;;;17.13;3.13;;;;;;;3.92;92.44;102787.25;5035912;28;20736;-67
2022/02/11 07:35:56;;;;;;;18.92;2.70;;;;;;;3.93;92.99;102796.03;5036111;28;20029;-68
2022/02/11 07:38:21;;;;;;;18.10;3.08;;;;;;;3.90;93.66;102802.09;5036915;28;20040;-68
2022/02/11 07:40:46;;;;;;;16.77;3.20;;;;;;;3.96;94.07;102816.16;5035748;28;20029;-69
2022/02/11 07:43:12;;;;;;;15.45;3.78;;;;;;;4.06;93.60;102810.19;5035294;28;20044;-68
2022/02/11 07:45:37;;;;;;;21.58;3.80;;;;;;;4.29;92.97;102814.88;5033485;28;20030;-67
2022/02/11 07:48:03;;;;;;;23.30;3.28;;;;;;;4.42;90.85;102824.66;5028247;28;20033;-68
2022/02/11 07:50:29;;;;;;;16.48;3.72;;;;;;;4.41;90.80;102828.13;5034242;28;20429;-68
2022/02/11 07:52:54;;;;;;;33.83;10.55;;;;;;;4.37;90.39;102827.22;5035250;28;20030;-68
2022/02/11 07:55:20;;;;;;;18.55;6.03;;;;;;;4.48;90.01;102839.59;5035422;28;20030;-67
2022/02/11 07:57:45;;;;;;;14.70;3.63;;;;;;;4.71;87.15;102850.38;5036860;28;20025;-67
2022/02/11 08:00:11;;;;;;;17.15;4.63;;;;;;;4.81;85.75;102857.50;5047448;28;20037;-68
2022/02/11 08:02:36;;;;;;;10.32;2.35;;;;;;;4.63;85.96;102852.91;5035191;28;20477;-68
2022/02/11 08:05:03;;;;;;;15.32;3.30;;;;;;;4.47;86.40;102864.06;5032698;28;20028;-68
2022/02/11 08:07:28;;;;;;;19.50;3.47;;;;;;;4.42;86.96;102875.38;5046839;28;20086;-69
2022/02/11 08:09:53;;;;;;;13.75;2.67;;;;;;;4.39;87.07;102871.84;5031159;28;20029;-68
2022/02/11 08:12:19;;;;;;;19.45;3.08;;;;;;;4.42;87.89;102879.72;5021417;28;20022;-69
2022/02/11 08:14:44;;;;;;;13.43;2.83;;;;;;;4.46;86.50;102893.78;5015824;28;20528;-69
2022/02/11 08:17:09;;;;;;;16.02;3.05;;;;;;;4.43;84.94;102900.72;5025276;28;20044;-69
2022/02/11 08:19:35;;;;;;;16.85;2.58;;;;;;;4.47;83.49;102901.66;5039855;28;20465;-68
2022/02/11 08:22:00;;;;;;;20.23;3.15;;;;;;;4.51;78.66;102913.97;5055346;28;20461;-67
2022/02/11 08:24:25;;;;;;;16.10;3.08;;;;;;;4.58;76.57;102912.31;5054507;28;20028;-68
2022/02/11 08:26:51;;;;;;;15.57;3.15;;;;;;;4.58;74.93;102918.44;5055398;28;20049;-68
2022/02/11 08:29:21;;;;;;;14.10;2.80;;;;;;;4.60;73.98;102931.56;5053983;28;20071;-66
2022/02/11 08:31:46;;;;;;;10.63;2.10;;;;;;;4.60;73.07;102918.47;5053167;28;20025;-69
2022/02/11 08:34:12;;;;;;;12.23;2.88;;;;;;;4.65;73.09;102931.66;5054833;28;20448;-66
2022/02/11 08:36:37;;;;;;;11.98;2.70;;;;;;;4.69;72.06;102943.94;5054869;28;20028;-66
2022/02/11 08:39:02;;;;;;;16.17;2.53;;;;;;;4.70;71.46;102951.84;5036085;28;20037;-67
2022/02/11 08:41:28;;;;;;;12.18;2.47;;;;;;;4.73;71.26;102953.63;5036043;28;20029;-69
2022/02/11 08:43:53;;;;;;;9.35;2.67;;;;;;;4.78;69.86;102940.56;5034837;28;20037;-69
2022/02/11 08:46:21;;;;;;;14.13;2.58;;;;;;;4.82;70.62;102968.63;5033871;28;20374;-69
2022/02/11 08:48:48;;;;;;;22.83;5.15;;;;;;;4.91;70.16;102966.09;5034543;28;20021;-67
2022/02/11 08:51:14;;;;;;;15.55;2.30;;;;;;;4.97;71.10;102970.56;5035458;28;20025;-67
2022/02/11 08:53:40;;;;;;;17.63;2.33;;;;;;;5.14;71.97;102973.41;5032079;28;20465;-67
2022/02/11 08:56:07;;;;;;;16.75;2.55;;;;;;;5.30;69.33;102971.84;5034396;28;20024;-69
2022/02/11 08:58:33;;;;;;;12.82;2.72;;;;;;;5.57;67.89;102982.66;5033861;28;20397;-69
2022/02/11 09:00:59;;;;;;;18.88;2.38;;;;;;;5.74;65.44;102990.72;5033477;28;20030;-68
2022/02/11 09:03:24;;;;;;;14.75;2.45;;;;;;;6.35;64.10;102986.88;5034398;28;20030;-69
2022/02/11 09:05:49;;;;;;;13.60;2.72;;;;;;;6.95;63.08;102993.41;5034030;28;20478;-69
2022/02/11 09:08:15;;;;;;;18.30;3.70;;;;;;;7.66;62.53;103004.19;5033340;28;20037;-66
2022/02/11 09:10:41;;;;;;;13.70;2.35;;;;;;;8.16;58.67;103010.44;5034267;28;20057;-69
2022/02/11 09:13:07;;;;;;;13.50;2.60;;;;;;;8.71;57.23;103012.16;5034580;28;20064;-67
2022/02/11 09:15:33;;;;;;;13.95;3.20;;;;;;;9.30;54.67;103010.19;5033623;28;20064;-69
2022/02/11 09:17:58;;;;;;;12.50;2.47;;;;;;;9.33;54.43;103026.06;5033826;28;20026;-69
2022/02/11 09:20:25;;;;;;;20.15;2.92;;;;;;;9.83;53.81;103029.31;5028660;28;20072;-68
2022/02/11 09:22:51;;;;;;;15.00;2.88;;;;;;;10.02;52.85;103025.66;5028843;28;20038;-69
2022/02/11 09:25:18;;;;;;;14.20;2.72;;;;;;;9.79;50.84;103032.84;5034708;28;20030;-67
2022/02/11 09:27:44;;;;;;;11.55;2.40;;;;;;;9.96;51.73;103027.47;5034003;28;20064;-70
2022/02/11 09:30:11;;;;;;;14.00;2.53;;;;;;;10.89;47.86;103041.69;5033828;28;20029;-66
2022/02/11 09:32:36;;;;;;;14.18;2.83;;;;;;;10.75;47.19;103033.88;5033701;28;20021;-65
2022/02/11 09:35:01;;;;;;;13.68;2.60;;;;;;;10.21;47.64;103051.09;5033600;28;20051;-65
2022/02/11 09:37:27;;;;;;;13.57;2.60;;;;;;;9.78;49.20;103059.31;5033236;28;20478;-66
2022/02/11 09:39:53;;;;;;;18.55;3.15;;;;;;;9.42;50.02;103075.34;5033666;28;20802;-65
2022/02/11 09:42:19;;;;;;;13.23;2.50;;;;;;;8.53;52.18;103072.03;5026251;28;20033;-64
2022/02/11 09:44:46;;;;;;;14.52;2.78;;;;;;;7.86;54.40;103078.09;5026821;28;20030;-64
2022/02/11 09:47:12;;;;;;;12.10;2.53;;;;;;;7.12;56.60;103083.94;5032539;28;20026;-65
2022/02/11 09:49:38;;;;;;;11.68;2.15;;;;;;;6.65;58.97;103090.66;5032204;28;20065;-63
2022/02/11 09:52:05;;;;;;;11.73;2.38;;;;;;;6.93;57.61;103097.88;5030964;28;20091;-65
2022/02/11 09:54:32;;;;;;;13.63;2.25;;;;;;;7.92;52.83;103095.72;5032625;28;20474;-64
2022/02/11 09:56:58;;;;;;;10.15;2.55;;;;;;;8.97;51.11;103090.50;5033547;28;20029;-65
2022/02/11 09:59:24;;;;;;;10.00;2.28;;;;;;;10.03;49.72;103089.16;5033748;28;20496;-65
2022/02/11 10:01:50;;;;;;;11.25;2.10;;;;;;;10.60;44.63;103091.44;5032304;28;20026;-65
2022/02/11 10:04:17;;;;;;;13.85;2.83;;;;;;;10.37;43.26;103101.31;5033634;28;20462;-68
2022/02/11 10:06:48;;;;;;;14.88;2.25;;;;;;;10.84;43.03;103104.47;5028209;28;20515;-67
2022/02/11 10:09:15;;;;;;;8.20;1.98;;;;;;;10.84;41.86;103107.13;5037858;28;20033;-66
2022/02/11 10:11:43;;;;;;;12.35;3.05;;;;;;;11.15;40.93;103110.31;5039242;28;20109;-66
2022/02/11 10:14:36;;;;;;;12.23;2.83;;;;;;;11.41;38.97;103114.47;5033222;28;20025;-66
2022/02/11 10:17:06;;;;;;;7.85;2.08;;;;;;;11.33;38.91;103117.22;5031910;28;20025;-67
2022/02/11 10:19:44;;;;;;;11.30;2.08;;;;;;;10.99;40.01;103122.88;5032625;28;20033;-67
2022/02/11 10:22:15;;;;;;;7.70;2.17;;;;;;;11.14;39.63;103120.06;5033447;28;20025;-65
2022/02/11 10:24:42;;;;;;;22.50;5.97;;;;;;;10.97;40.31;103133.50;5032934;28;20029;-67
2022/02/11 10:27:22;;;;;;;14.00;3.85;;;;;;;11.22;39.89;103140.31;5031646;28;20091;-65
2022/02/11 10:29:49;;;;;;;16.10;3.20;;;;;;;11.15;39.33;103153.63;5024489;28;20025;-67
2022/02/11 10:32:14;;;;;;;33.47;10.98;;;;;;;10.82;41.54;103150.41;5032313;28;20028;-67
2022/02/11 10:34:40;;;;;;;9.63;2.20;;;;;;;11.14;41.50;103162.47;5018915;28;20046;-65
2022/02/11 10:37:10;;;;;;;11.43;2.50;;;;;;;10.95;42.45;103159.13;5032786;28;20040;-64
2022/02/11 10:39:37;;;;;;;10.20;3.08;;;;;;;9.81;44.00;103163.38;5037182;28;20113;-65
2022/02/11 10:42:08;;;;;;;12.48;2.30;;;;;;;9.91;46.14;103166.88;5040295;28;20025;-67
2022/02/11 10:44:36;;;;;;;8.85;2.50;;;;;;;10.42;46.10;103176.31;5031278;28;20048;-66
2022/02/11 10:47:07;;;;;;;15.90;3.03;;;;;;;9.23;49.65;103172.38;5041704;28;20037;-65
2022/02/11 10:49:40;;;;;;;10.93;2.47;;;;;;;8.09;53.28;103177.53;5033914;28;20030;-63
2022/02/11 10:52:13;;;;;;;14.35;2.65;;;;;;;7.51;55.58;103185.19;5038579;28;20064;-66
2022/02/11 10:54:39;;;;;;;15.80;2.83;;;;;;;7.60;56.84;103173.81;5031932;28;20043;-63
2022/02/11 10:57:09;;;;;;;11.32;2.30;;;;;;;8.60;52.11;103199.69;5032388;28;20036;-66
2022/02/11 10:59:36;;;;;;;15.55;2.22;;;;;;;9.02;47.91;103191.78;5020386;28;20025;-64
2022/02/11 11:02:07;;;;;;;11.40;2.28;;;;;;;9.30;47.92;103203.22;5032717;28;20469;-65
2022/02/11 11:04:32;;;;;;;10.95;2.35;;;;;;;10.63;45.77;103205.31;5029285;28;20029;-64
2022/02/11 11:06:58;;;;;;;12.05;2.45;;;;;;;10.94;43.04;103201.56;5029630;28;20029;-64
2022/02/11 11:09:28;;;;;;;8.80;2.20;;;;;;;10.06;44.21;103210.03;5030002;28;20032;-63
2022/02/11 11:11:54;;;;;;;11.10;2.33;;;;;;;9.43;46.18;103211.13;5031459;28;20034;-63
2022/02/11 11:14:21;;;;;;;10.32;2.00;;;;;;;10.10;44.06;103207.38;5031481;28;20546;-66
2022/02/11 11:16:51;;;;;;;10.15;2.00;;;;;;;10.70;42.13;103215.88;5027923;28;20155;-65
2022/02/11 11:19:18;;;;;;;7.07;2.08;;;;;;;11.08;40.16;103218.22;5030905;28;20061;-66
2022/02/11 11:22:10;;;;;;;9.30;2.28;;;;;;;11.22;39.24;103214.59;5028700;28;20493;-65
2022/02/11 11:24:36;;;;;;;10.85;2.10;;;;;;;11.24;39.09;103215.44;5018560;28;20048;-64
2022/02/11 11:27:01;;;;;;;9.48;2.17;;;;;;;11.28;39.01;103215.41;5031833;28;20029;-63
2022/02/11 11:29:28;;;;;;;9.05;2.35;;;;;;;11.89;38.65;103201.47;5036257;28;20156;-65
2022/02/11 11:31:56;;;;;;;8.63;2.15;;;;;;;12.00;38.55;103201.38;5030852;28;20113;-65
2022/02/11 11:34:22;;;;;;;10.88;2.00;;;;;;;12.25;37.17;103224.03;5032306;28;20036;-64
2022/02/11 11:36:49;;;;;;;8.02;1.98;;;;;;;12.34;37.12;103220.38;5031960;28;20025;-64
2022/02/11 11:39:18;;;;;;;9.90;2.13;;;;;;;12.95;36.59;103220.31;5031846;28;20107;-70
2022/02/11 11:41:57;;;;;;;11.95;2.05;;;;;;;12.70;35.48;103226.06;5032548;28;20033;-66
2022/02/11 11:44:24;;;;;;;8.48;1.85;;;;;;;12.24;35.58;103229.38;5032317;28;20021;-70
2022/02/11 11:46:51;;;;;;;12.60;1.95;;;;;;;12.47;37.03;103223.75;5030842;28;20048;-68
2022/02/11 11:49:20;;;;;;;8.55;2.20;;;;;;;11.98;35.65;103227.91;5032086;28;20025;-67
2022/02/11 11:51:45;;;;;;;10.43;2.13;;;;;;;11.73;36.01;103235.28;5030856;28;20026;-70
2022/02/11 11:54:23;;;;;;;13.73;2.70;;;;;;;12.64;36.54;103239.44;5031495;28;20099;-64
2022/02/11 11:56:50;;;;;;;11.25;2.00;;;;;;;13.39;34.37;103237.34;5032087;28;20708;-67
2022/02/11 11:59:23;;;;;;;11.18;2.20;;;;;;;13.62;35.18;103230.72;5031856;28;20030;-68
2022/02/11 12:02:11;;;;;;;10.15;2.30;;;;;;;13.53;33.38;103244.16;5031046;28;20104;-65
2022/02/11 12:04:39;;;;;;;10.65;1.98;;;;;;;13.35;34.02;103229.41;5034415;28;20026;-66
2022/02/11 12:07:10;;;;;;;11.27;1.90;;;;;;;13.23;33.78;103241.13;5019744;28;20065;-67
2022/02/11 12:09:36;;;;;;;9.85;2.00;;;;;;;12.60;34.90;103232.41;5034234;28;20018;-67
2022/02/11 12:12:07;;;;;;;7.65;2.08;;;;;;;11.47;36.70;103232.00;5034455;28;20111;-64
2022/02/11 12:14:35;;;;;;;9.80;2.00;;;;;;;11.20;37.76;103232.28;5034728;28;20064;-65
2022/02/11 12:17:02;;;;;;;11.95;2.20;;;;;;;11.96;38.34;103229.72;5034006;28;20083;-62
2022/02/11 12:19:29;;;;;;;9.45;2.20;;;;;;;12.54;37.41;103240.47;5030162;28;20021;-68
2022/02/11 12:21:55;;;;;;;11.80;1.88;;;;;;;12.51;35.91;103238.75;5032477;28;20033;-66
2022/02/11 12:27:21;;;;;;;8.43;1.95;;;;;;;12.77;36.62;103241.03;5025166;28;20044;-65
2022/02/11 12:29:58;;;;;;;7.00;1.88;;;;;;;12.81;35.13;103251.59;5019097;28;20100;-64
2022/02/11 12:32:32;;;;;;;10.23;1.90;;;;;;;11.70;37.45;103245.91;5021652;28;20064;-65
2022/02/11 12:35:00;;;;;;;10.70;2.25;;;;;;;10.98;39.33;103253.66;5030354;28;20037;-65
2022/02/11 12:37:28;;;;;;;9.18;1.80;;;;;;;10.95;40.17;103254.56;5034853;28;20033;-67
2022/02/11 12:40:23;;;;;;;12.90;2.25;;;;;;;10.25;41.85;103259.38;5034113;28;20030;-64
2022/02/11 12:42:51;;;;;;;12.40;2.70;;;;;;;9.53;44.19;103257.84;5034964;28;20021;-67
2022/02/11 12:45:26;;;;;;;12.18;2.10;;;;;;;9.04;45.48;103264.03;5032907;28;20033;-65
2022/02/11 12:47:53;;;;;;;6.93;1.63;;;;;;;8.65;48.01;103273.66;5033077;28;20040;-62
2022/02/11 12:50:20;;;;;;;10.38;2.45;;;;;;;8.27;55.29;103274.38;5034594;28;20021;-66
2022/02/11 12:52:46;;;;;;;14.02;2.33;;;;;;;8.03;58.37;103260.19;5015343;28;20030;-64
2022/02/11 12:55:19;;;;;;;13.15;2.13;;;;;;;7.78;60.13;103270.63;5033695;28;20040;-63
2022/02/11 12:57:51;;;;;;;10.93;2.20;;;;;;;7.17;62.13;103274.59;5034808;28;20080;-66
2022/02/11 13:00:20;;;;;;;9.30;1.77;;;;;;;6.71;66.02;103269.78;5034345;28;20355;-65
2022/02/11 13:02:50;;;;;;;9.60;2.05;;;;;;;6.76;68.26;103274.19;5032136;28;20112;-65
2022/02/11 13:05:24;;;;;;;11.48;2.17;;;;;;;7.27;68.17;103274.66;5032891;28;20040;-64
2022/02/11 13:07:51;;;;;;;9.55;1.63;;;;;;;7.56;63.87;103282.78;5030208;28;20402;-66
2022/02/11 13:10:38;;;;;;;9.07;1.92;;;;;;;7.77;61.86;103275.91;5032415;28;20030;-66
2022/02/11 13:13:17;;;;;;;11.50;1.80;;;;;;;7.67;61.16;103290.78;5034091;28;20179;-67
2022/02/11 13:15:46;;;;;;;6.40;1.50;;;;;;;7.43;60.18;103281.81;5033208;28;20025;-67
2022/02/11 13:18:16;;;;;;;12.45;1.73;;;;;;;7.42;61.97;103279.16;5033814;28;20389;-66
2022/02/11 13:20:46;;;;;;;6.80;1.67;;;;;;;7.37;60.67;103284.41;5033878;28;20025;-63
2022/02/11 13:23:13;;;;;;;11.40;2.40;;;;;;;7.27;62.08;103287.84;5033470;28;20044;-62
2022/02/11 13:25:40;;;;;;;10.90;2.20;;;;;;;7.44;60.78;103290.59;5032501;28;20477;-64
2022/02/11 13:28:11;;;;;;;8.10;1.90;;;;;;;7.74;58.90;103291.69;5032354;28;20026;-66
2022/02/11 13:30:38;;;;;;;5.97;1.48;;;;;;;7.82;57.99;103297.91;5033428;28;20100;-65
2022/02/11 13:33:35;;;;;;;10.65;2.00;;;;;;;8.75;55.93;103286.00;5033639;28;20032;-66
2022/02/11 13:36:06;;;;;;;8.90;1.70;;;;;;;10.40;50.64;103284.06;5023596;28;20112;-65
2022/02/11 13:38:33;;;;;;;7.30;1.95;;;;;;;10.97;48.26;103275.75;5028499;28;20017;-65
2022/02/11 13:41:10;;;;;;;3.90;1.48;;;;;;;10.51;49.18;103287.53;5032441;28;20123;-65
2022/02/11 13:44:07;;;;;;;8.27;1.70;;;;;;;9.17;53.26;103291.38;5013712;28;20052;-64
2022/02/11 13:46:38;;;;;;;10.30;1.77;;;;;;;8.98;55.13;103304.53;5032273;28;20041;-65
2022/02/11 13:49:06;;;;;;;10.07;2.00;;;;;;;8.94;55.25;103293.97;5033541;28;20033;-65
2022/02/11 13:51:32;;;;;;;11.32;1.90;;;;;;;8.08;58.25;103302.44;5033406;28;20084;-64
2022/02/11 13:54:10;;;;;;;11.80;2.00;;;;;;;8.08;59.44;103294.53;5033260;28;20036;-64
2022/02/11 13:56:38;;;;;;;7.97;1.80;;;;;;;8.42;58.81;103303.47;5032338;28;20061;-65
2022/02/11 13:59:16;;;;;;;9.93;1.92;;;;;;;8.41;59.86;103304.34;5033461;28;20540;-65
2022/02/11 14:01:45;;;;;;;6.15;1.50;;;;;;;8.36;59.18;103307.00;5032835;28;20017;-65
2022/02/11 14:04:14;;;;;;;8.68;1.98;;;;;;;8.66;58.66;103297.44;5033116;28;20061;-63
2022/02/11 14:06:50;;;;;;;7.60;1.85;;;;;;;9.44;54.81;103305.47;5032177;28;20018;-65
2022/02/11 14:09:37;;;;;;;8.63;1.98;;;;;;;9.71;52.23;103296.59;5025613;28;20026;-65
2022/02/11 14:12:13;;;;;;;7.10;1.65;;;;;;;9.50;54.17;103308.09;5029482;28;20116;-64
2022/02/11 14:14:51;;;;;;;6.90;1.63;;;;;;;8.58;56.48;103306.22;5016439;28;20469;-65
2022/02/11 14:17:16;;;;;;;11.48;2.05;;;;;;;8.33;57.30;103311.38;5032811;28;20055;-66
2022/02/11 14:19:43;;;;;;;12.23;2.20;;;;;;;8.17;56.34;103311.31;5032025;28;20377;-66
2022/02/11 14:22:08;;;;;;;22.80;3.65;;;;;;;8.02;57.63;103322.66;5030555;28;20385;-63
2022/02/11 14:24:34;;;;;;;11.73;2.25;;;;;;;7.94;57.44;103328.75;5028101;28;20092;-63
2022/02/11 14:26:59;;;;;;;9.27;1.70;;;;;;;7.62;58.51;103319.75;5031372;28;20420;-62
2022/02/11 14:29:25;;;;;;;6.22;1.92;;;;;;;7.52;60.57;103321.44;5031925;28;20479;-67
2022/02/11 14:31:54;;;;;;;13.32;2.08;;;;;;;7.84;57.47;103328.69;5030803;28;20141;-65
2022/02/11 14:34:19;;;;;;;6.38;1.20;;;;;;;7.65;56.24;103324.19;5032498;28;20026;-65
2022/02/11 14:36:44;;;;;;;19.20;2.90;;;;;;;7.55;57.14;103332.00;5032205;28;20033;-67
2022/02/11 14:39:16;;;;;;;8.32;1.95;;;;;;;7.44;57.42;103327.50;5031101;28;20029;-64
2022/02/11 14:41:46;;;;;;;10.88;2.35;;;;;;;7.38;58.29;103331.88;5031437;28;20033;-65
2022/02/11 14:44:20;;;;;;;4.57;1.52;;;;;;;7.43;57.34;103326.66;5031072;28;20481;-65
2022/02/11 14:46:47;;;;;;;8.52;1.60;;;;;;;7.52;57.48;103326.72;5024443;28;20050;-65
2022/02/11 14:49:13;;;;;;;10.27;1.90;;;;;;;7.60;57.48;103321.50;5026989;28;20088;-62
2022/02/11 14:51:39;;;;;;;8.18;1.83;;;;;;;7.64;57.23;103333.81;5031973;28;20033;-65
2022/02/11 14:54:08;;;;;;;10.32;2.40;;;;;;;7.64;55.67;103340.88;5032485;28;20080;-66
2022/02/11 14:56:38;;;;;;;12.13;2.10;;;;;;;7.70;56.88;103343.56;5023938;28;20026;-68
2022/02/11 14:59:03;;;;;;;14.35;1.90;;;;;;;7.55;54.73;103339.03;5019179;28;20030;-66
2022/02/11 15:01:29;;;;;;;8.30;1.52;;;;;;;7.38;54.17;103345.03;5032144;28;20033;-65
2022/02/11 15:03:54;;;;;;;7.78;1.60;;;;;;;7.25;54.07;103340.53;5032568;28;20485;-65
2022/02/11 15:06:20;;;;;;;7.60;1.40;;;;;;;7.27;54.89;103337.91;5032818;28;20377;-66
2022/02/11 15:08:46;;;;;;;8.63;1.55;;;;;;;7.08;53.27;103345.63;5031684;28;20462;-69